Time;durP1;ratioP1;P1;durP2;ratioP2;P2;SDS_P1;SDS_P2;PMS_P1;PMS_P2;Temp;Humidity;BMP_temperature;BMP_pressure;BME280_temperature;BME280_humidity;BME280_pressure;Samples;Min_cycle;Max_cycle;Signal;HPM_P1;HPM_P2
2020/12/03 00:02:04;;;;;;;1999.90;999.90;;;6.80;99.90;;;;;;5093706;28;20135;-83
2020/12/03 00:04:31;;;;;;;1999.90;999.90;;;6.90;99.90;;;;;;5094646;28;20403;-84
2020/12/03 00:07:01;;;;;;;1999.90;999.90;;;6.80;99.90;;;;;;5094742;28;20350;-84
2020/12/03 00:09:28;;;;;;;1999.90;999.90;;;6.80;99.90;;;;;;5094583;28;20084;-84
2020/12/03 00:11:59;;;;;;;1999.90;999.90;;;6.80;99.90;;;;;;5093847;28;20498;-84
2020/12/03 00:14:27;;;;;;;1999.90;999.90;;;6.80;99.90;;;;;;5094266;28;20103;-84
2020/12/03 00:16:54;;;;;;;1999.90;999.90;;;6.80;99.90;;;;;;5084758;28;20044;-84
2020/12/03 00:19:24;;;;;;;1999.90;999.90;;;6.70;99.90;;;;;;5094285;28;20055;-84
2020/12/03 00:21:53;;;;;;;1999.90;999.90;;;6.80;99.90;;;;;;5094615;28;20060;-84
2020/12/03 00:24:22;;;;;;;1999.90;999.90;;;6.80;99.90;;;;;;5093966;28;20122;-84
2020/12/03 00:26:49;;;;;;;1999.90;999.90;;;6.70;99.90;;;;;;5094258;28;20064;-84
2020/12/03 00:29:16;;;;;;;1999.90;999.90;;;6.80;99.90;;;;;;5093749;28;20085;-84
2020/12/03 00:31:46;;;;;;;1999.90;999.90;;;6.80;99.90;;;;;;5094683;28;20185;-84
2020/12/03 00:34:15;;;;;;;1999.90;999.90;;;6.70;99.90;;;;;;5093373;28;20068;-84
2020/12/03 00:36:42;;;;;;;1999.90;999.90;;;6.70;99.90;;;;;;5092809;28;20082;-84
2020/12/03 00:39:11;;;;;;;1999.90;999.90;;;6.70;99.90;;;;;;5093728;28;20048;-84
2020/12/03 00:41:38;;;;;;;1999.90;999.90;;;6.70;99.90;;;;;;5094309;28;20146;-84
2020/12/03 00:44:06;;;;;;;1999.90;999.90;;;6.70;99.90;;;;;;5093504;28;20343;-83
2020/12/03 00:46:35;;;;;;;1999.90;999.90;;;6.70;99.90;;;;;;5094185;28;20504;-84
2020/12/03 00:49:03;;;;;;;1999.90;999.90;;;6.70;99.90;;;;;;5094190;28;20054;-84
2020/12/03 00:51:30;;;;;;;1999.90;999.90;;;6.60;99.90;;;;;;5093997;28;20071;-84
2020/12/03 00:53:57;;;;;;;1999.90;999.90;;;6.60;99.90;;;;;;5093582;28;20052;-84
2020/12/03 00:56:24;;;;;;;1999.90;999.90;;;6.60;99.90;;;;;;5093603;28;20055;-84
2020/12/03 00:58:52;;;;;;;1999.90;999.90;;;6.60;99.90;;;;;;5094033;28;20116;-84
2020/12/03 01:01:20;;;;;;;1999.90;999.90;;;6.60;99.90;;;;;;5093904;28;20135;-84
2020/12/03 01:03:49;;;;;;;1999.90;999.90;;;6.60;99.90;;;;;;5093495;28;20487;-84
2020/12/03 01:06:18;;;;;;;1999.90;999.90;;;6.60;99.90;;;;;;5093844;28;20054;-84
2020/12/03 01:08:45;;;;;;;1999.90;999.90;;;6.50;99.90;;;;;;5093028;28;20466;-84
2020/12/03 01:11:12;;;;;;;1999.90;999.90;;;6.60;99.90;;;;;;5093723;28;20397;-84
2020/12/03 01:13:39;;;;;;;1999.90;999.90;;;6.60;99.90;;;;;;5093292;28;20553;-84
2020/12/03 01:16:06;;;;;;;1999.90;999.90;;;6.60;99.90;;;;;;5093460;28;20060;-84
2020/12/03 01:18:33;;;;;;;1999.90;999.90;;;6.60;99.90;;;;;;5092799;28;20076;-84
2020/12/03 01:20:59;;;;;;;1999.90;999.90;;;6.60;99.90;;;;;;5093433;28;20127;-84
2020/12/03 01:23:27;;;;;;;1999.90;999.90;;;6.60;99.90;;;;;;5093136;28;20080;-84
2020/12/03 01:25:54;;;;;;;1999.90;999.90;;;6.60;99.90;;;;;;5091951;28;20055;-84
2020/12/03 01:28:21;;;;;;;1999.90;999.90;;;6.60;99.90;;;;;;5093266;28;20067;-84
2020/12/03 01:30:48;;;;;;;1999.90;999.90;;;6.50;99.90;;;;;;5092917;28;20094;-84
2020/12/03 01:33:15;;;;;;;1999.90;999.90;;;6.60;99.90;;;;;;5093012;28;20127;-84
2020/12/03 01:35:42;;;;;;;1999.90;999.90;;;6.60;99.90;;;;;;5092701;28;20139;-83
2020/12/03 01:38:09;;;;;;;1999.90;999.90;;;6.60;99.90;;;;;;5092977;28;20055;-84
2020/12/03 01:40:37;;;;;;;1999.90;999.90;;;6.60;99.90;;;;;;5092916;28;20128;-84
2020/12/03 01:43:05;;;;;;;1999.90;999.90;;;6.60;99.90;;;;;;5092245;28;20049;-84
2020/12/03 01:45:54;;;;;;;1999.90;999.90;;;6.60;99.90;;;;;;5092752;28;20137;-84
2020/12/03 01:48:33;;;;;;;1999.90;999.90;;;6.60;99.90;;;;;;5092910;28;20044;-84
2020/12/03 01:51:06;;;;;;;1999.90;999.90;;;6.60;99.90;;;;;;5092834;28;20059;-90
2020/12/03 01:53:33;;;;;;;1999.90;999.90;;;6.60;99.90;;;;;;5093316;28;20055;-90
2020/12/03 01:56:05;;;;;;;1999.90;999.90;;;6.60;99.90;;;;;;5093965;28;20474;-90
2020/12/03 01:58:36;;;;;;;1999.90;999.90;;;6.50;99.90;;;;;;5093003;28;20135;-89
2020/12/03 02:01:04;;;;;;;1999.90;999.90;;;6.60;99.90;;;;;;5093705;28;20074;-89
2020/12/03 02:03:31;;;;;;;1999.90;999.90;;;6.50;99.90;;;;;;5079479;28;20048;-90
2020/12/03 02:05:58;;;;;;;1999.90;999.90;;;6.60;99.90;;;;;;5093117;28;20071;-89
2020/12/03 02:08:25;;;;;;;1999.90;999.90;;;6.50;99.90;;;;;;5093016;28;20132;-90
2020/12/03 02:10:52;;;;;;;1999.90;999.90;;;6.50;99.90;;;;;;5093648;28;20052;-89
2020/12/03 02:13:20;;;;;;;1999.90;999.90;;;6.60;99.90;;;;;;5092395;28;20131;-89
2020/12/03 02:15:47;;;;;;;1999.90;999.90;;;6.60;99.90;;;;;;5093819;28;20151;-89
2020/12/03 02:18:14;;;;;;;1999.90;999.90;;;6.50;99.90;;;;;;5093330;28;20135;-89
2020/12/03 02:20:42;;;;;;;1999.90;999.90;;;6.60;99.90;;;;;;5092689;28;20438;-90
2020/12/03 02:23:11;;;;;;;1999.90;999.90;;;6.60;99.90;;;;;;5093165;28;20059;-89
2020/12/03 02:25:38;;;;;;;1999.90;999.90;;;6.50;99.90;;;;;;5093576;28;20135;-90
2020/12/03 02:28:05;;;;;;;1999.90;999.90;;;6.50;99.90;;;;;;5093041;28;20048;-89
2020/12/03 02:30:32;;;;;;;1999.90;999.90;;;6.50;99.90;;;;;;5091653;28;20078;-89
2020/12/03 02:32:59;;;;;;;1999.90;999.90;;;6.50;99.90;;;;;;5093179;28;20449;-89
2020/12/03 02:35:26;;;;;;;1999.90;999.90;;;6.50;99.90;;;;;;5093037;28;20249;-89
2020/12/03 02:37:54;;;;;;;1999.90;999.90;;;6.50;99.90;;;;;;5092502;28;20079;-89
2020/12/03 02:40:21;;;;;;;1999.90;999.90;;;6.50;99.90;;;;;;5092700;28;20082;-89
2020/12/03 02:42:48;;;;;;;1999.90;999.90;;;6.50;99.90;;;;;;5093393;28;20044;-89
2020/12/03 02:45:16;;;;;;;1999.90;999.90;;;6.40;99.90;;;;;;5092227;28;20044;-90
2020/12/03 02:47:43;;;;;;;1999.90;999.90;;;6.50;99.90;;;;;;5093670;28;20102;-90
2020/12/03 02:50:10;;;;;;;1999.90;999.90;;;6.40;99.90;;;;;;5092956;28;20135;-90
2020/12/03 02:52:37;;;;;;;1999.90;999.90;;;6.40;99.90;;;;;;5093497;28;20062;-90
2020/12/03 02:55:05;;;;;;;1999.90;999.90;;;6.40;99.90;;;;;;5090242;28;20083;-90
2020/12/03 02:57:31;;;;;;;1999.90;999.90;;;6.50;99.90;;;;;;5092900;28;20461;-90
2020/12/03 02:59:58;;;;;;;1999.90;999.90;;;6.40;99.90;;;;;;5098821;28;20533;-90
2020/12/03 03:02:25;;;;;;;1999.90;999.90;;;6.50;99.90;;;;;;5100492;28;20052;-89
2020/12/03 03:04:52;;;;;;;1999.90;999.90;;;6.50;99.90;;;;;;5096945;28;20052;-90
2020/12/03 03:07:19;;;;;;;1999.90;999.90;;;6.50;99.90;;;;;;5091880;28;20051;-89
2020/12/03 03:09:46;;;;;;;1999.90;999.90;;;6.50;99.90;;;;;;5091832;28;20059;-89
2020/12/03 03:12:14;;;;;;;1999.90;999.90;;;6.50;99.90;;;;;;5092680;28;20071;-88
2020/12/03 03:14:41;;;;;;;1999.90;999.90;;;6.40;99.90;;;;;;5092984;28;20071;-88
2020/12/03 03:17:08;;;;;;;1999.90;999.90;;;6.40;99.90;;;;;;5092292;28;20058;-88
2020/12/03 03:19:35;;;;;;;1999.90;999.90;;;6.40;99.90;;;;;;5093017;28;20107;-88
2020/12/03 03:22:02;;;;;;;1999.90;999.90;;;6.30;99.90;;;;;;5092856;28;20142;-89
2020/12/03 03:24:29;;;;;;;1999.90;999.90;;;6.30;99.90;;;;;;5092407;28;20494;-89
2020/12/03 03:26:56;;;;;;;1999.90;999.90;;;6.30;99.90;;;;;;5092977;28;20056;-89
2020/12/03 03:29:24;;;;;;;1999.90;999.90;;;6.30;99.90;;;;;;5092359;28;20048;-88
2020/12/03 03:31:52;;;;;;;1999.90;999.90;;;6.30;99.90;;;;;;5092896;28;20066;-88
2020/12/03 03:34:19;;;;;;;1999.90;999.90;;;6.20;99.90;;;;;;5091002;28;20148;-89
2020/12/03 03:36:46;;;;;;;1999.90;999.90;;;6.20;99.90;;;;;;5092217;28;20138;-89
2020/12/03 03:39:18;;;;;;;1999.90;999.90;;;6.30;99.90;;;;;;5092877;28;20127;-90
2020/12/03 03:41:46;;;;;;;1999.90;999.90;;;6.20;99.90;;;;;;5095044;28;20081;-88
2020/12/03 03:44:13;;;;;;;1999.90;999.90;;;6.30;99.90;;;;;;5095963;28;20126;-89
2020/12/03 03:46:41;;;;;;;1999.90;999.90;;;6.30;99.90;;;;;;5096398;28;20079;-89
2020/12/03 03:49:08;;;;;;;1999.90;999.90;;;6.30;99.90;;;;;;5096065;28;20046;-89
2020/12/03 03:51:35;;;;;;;1999.90;999.90;;;6.20;99.90;;;;;;5096418;28;20116;-89
2020/12/03 03:54:02;;;;;;;1999.90;999.90;;;6.20;99.90;;;;;;5096868;28;20052;-89
2020/12/03 03:56:29;;;;;;;1999.90;999.90;;;6.20;99.90;;;;;;5094825;28;20056;-89
2020/12/03 03:58:56;;;;;;;1999.90;999.90;;;6.20;99.90;;;;;;5095548;28;20498;-89
2020/12/03 04:01:23;;;;;;;1999.90;999.90;;;6.20;99.90;;;;;;5095529;28;20121;-89
2020/12/03 04:03:51;;;;;;;1999.90;999.90;;;6.20;99.90;;;;;;5095790;28;20101;-89
2020/12/03 04:06:18;;;;;;;1999.90;999.90;;;6.20;99.90;;;;;;5095681;28;20079;-89
2020/12/03 04:08:45;;;;;;;1999.90;999.90;;;6.10;99.90;;;;;;5095190;28;20695;-89
2020/12/03 04:11:15;;;;;;;1999.90;999.90;;;6.20;99.90;;;;;;5094852;28;20071;-89
2020/12/03 04:13:43;;;;;;;1999.90;999.90;;;6.20;99.90;;;;;;5094832;28;20066;-89
2020/12/03 04:16:11;;;;;;;1999.90;999.90;;;6.20;99.90;;;;;;5095382;28;20076;-89
2020/12/03 04:18:38;;;;;;;1999.90;999.90;;;6.20;99.90;;;;;;5095527;28;20424;-89
2020/12/03 04:21:08;;;;;;;1999.90;999.90;;;6.20;99.90;;;;;;5095108;28;20087;-89
2020/12/03 04:23:35;;;;;;;1999.90;999.90;;;6.20;99.90;;;;;;5095055;28;20443;-89
2020/12/03 04:26:02;;;;;;;1999.90;999.90;;;6.20;99.90;;;;;;5095446;28;20083;-89
2020/12/03 04:28:30;;;;;;;1999.90;999.90;;;6.20;99.90;;;;;;5095107;28;20072;-89
2020/12/03 04:30:58;;;;;;;1999.90;999.90;;;6.20;99.90;;;;;;5095485;28;20055;-89
2020/12/03 04:33:25;;;;;;;1999.90;999.90;;;6.20;99.90;;;;;;5095415;28;20071;-89
2020/12/03 04:35:53;;;;;;;1999.90;999.90;;;6.30;99.90;;;;;;5094940;28;20138;-89
2020/12/03 04:38:21;;;;;;;1999.90;999.90;;;6.20;99.90;;;;;;5095250;28;20048;-90
2020/12/03 04:40:49;;;;;;;1999.90;999.90;;;6.30;99.90;;;;;;5095271;28;20052;-89
2020/12/03 04:43:23;;;;;;;1999.90;999.90;;;6.20;99.90;;;;;;5095454;28;20074;-90
2020/12/03 04:45:55;;;;;;;1999.90;999.90;;;6.30;99.90;;;;;;5094768;28;20142;-90
2020/12/03 04:48:54;;;;;;;1999.90;999.90;;;6.30;99.90;;;;;;5094710;28;20047;-89
2020/12/03 04:51:44;;;;;;;1999.90;999.90;;;6.30;99.90;;;;;;5092853;28;20130;-89
2020/12/03 04:54:28;;;;;;;1999.90;999.90;;;6.30;99.90;;;;;;5093734;28;20077;-89
2020/12/03 04:57:03;;;;;;;1999.90;999.90;;;6.30;99.90;;;;;;5093330;28;20462;-89
2020/12/03 04:59:51;;;;;;;1999.90;999.90;;;6.30;99.90;;;;;;5094821;28;20048;-89
2020/12/03 05:02:51;;;;;;;1999.90;999.90;;;6.30;99.90;;;;;;5094488;28;20059;-89
2020/12/03 05:05:25;;;;;;;1999.90;999.90;;;6.40;99.90;;;;;;5089067;28;20048;-89
2020/12/03 05:08:00;;;;;;;1999.90;999.90;;;6.40;99.90;;;;;;5094133;28;20117;-89
2020/12/03 05:10:33;;;;;;;;;;;6.40;99.90;;;;;;5094943;28;20056;-89
2020/12/03 05:13:00;;;;;;;1999.90;999.90;;;6.40;99.90;;;;;;5094515;28;19920;-89
2020/12/03 05:15:32;;;;;;;1999.90;999.90;;;6.40;99.90;;;;;;5093136;28;20754;-89
2020/12/03 05:18:31;;;;;;;1999.90;999.90;;;6.40;99.90;;;;;;5093702;28;20494;-89
2020/12/03 05:21:02;;;;;;;1999.90;999.90;;;6.40;99.90;;;;;;5061876;28;20123;-89
2020/12/03 05:23:31;;;;;;;1999.90;999.90;;;6.40;99.90;;;;;;5094109;28;20103;-89
2020/12/03 05:25:59;;;;;;;1999.90;999.90;;;6.50;99.90;;;;;;5093628;28;20058;-89
2020/12/03 05:28:40;;;;;;;1999.90;999.90;;;6.40;99.90;;;;;;5092018;28;20130;-89
2020/12/03 05:31:31;;;;;;;1999.90;999.90;;;6.40;99.90;;;;;;5094213;28;20577;-89
2020/12/03 05:34:06;;;;;;;1999.90;999.90;;;6.40;99.90;;;;;;5084475;28;20074;-89
2020/12/03 05:36:35;;;;;;;1999.90;999.90;;;6.40;99.90;;;;;;5093861;28;20501;-89
2020/12/03 05:39:06;;;;;;;1999.90;999.90;;;6.40;99.90;;;;;;5087271;28;20475;-89
2020/12/03 05:41:39;;;;;;;1999.90;999.90;;;6.40;99.90;;;;;;5094288;28;20044;-90
2020/12/03 05:44:19;;;;;;;1999.90;999.90;;;6.40;99.90;;;;;;5087997;28;20466;-89
2020/12/03 05:46:49;;;;;;;1999.90;999.90;;;6.50;99.90;;;;;;5089319;28;20056;-90
2020/12/03 05:49:20;;;;;;;1999.90;999.90;;;6.40;99.90;;;;;;5094121;28;20047;-90
2020/12/03 05:52:05;;;;;;;1999.90;999.90;;;6.40;99.90;;;;;;5092169;28;20091;-90
2020/12/03 05:58:13;;;;;;;1999.90;999.90;;;6.50;99.90;;;;;;5092981;28;20301;-89
2020/12/03 06:00:40;;;;;;;1999.90;999.90;;;6.50;99.90;;;;;;5092165;28;20072;-89
2020/12/03 06:06:52;;;;;;;1999.90;999.90;;;6.50;99.90;;;;;;5092562;28;20048;-89
2020/12/03 06:09:53;;;;;;;1999.90;999.90;;;6.60;99.90;;;;;;5085264;28;20520;-89
2020/12/03 06:12:40;;;;;;;1999.90;999.90;;;6.60;99.90;;;;;;5082505;28;20051;-90
2020/12/03 06:15:21;;;;;;;1999.90;999.90;;;6.50;99.90;;;;;;5091840;28;20054;-88
2020/12/03 06:18:02;;;;;;;1999.90;999.90;;;6.60;99.90;;;;;;5093496;28;20432;-89
2020/12/03 06:20:42;;;;;;;1999.90;999.90;;;6.60;99.90;;;;;;5093037;28;20093;-89
2020/12/03 06:23:27;;;;;;;1999.90;999.90;;;6.60;99.90;;;;;;5093592;28;20060;-89
2020/12/03 06:26:02;;;;;;;1999.90;999.90;;;6.60;99.90;;;;;;5092587;28;20375;-91
2020/12/03 06:28:57;;;;;;;1999.90;999.90;;;6.60;99.90;;;;;;5093340;28;20079;-91
2020/12/03 06:31:31;;;;;;;1999.90;999.90;;;6.60;99.90;;;;;;5071977;28;20105;-90
2020/12/03 06:34:20;;;;;;;1999.90;999.90;;;6.50;99.90;;;;;;5093900;28;20055;-90
2020/12/03 06:36:55;;;;;;;1999.90;999.90;;;6.50;99.90;;;;;;5086731;28;20055;-90
2020/12/03 06:39:34;;;;;;;;;;;6.50;99.90;;;;;;5094314;28;20431;-90
2020/12/03 06:42:09;;;;;;;1999.90;999.90;;;6.50;99.90;;;;;;5085278;28;19981;-90
2020/12/03 06:44:41;;;;;;;1999.90;999.90;;;6.60;99.90;;;;;;5092865;28;20442;-90
2020/12/03 06:47:53;;;;;;;1999.90;999.90;;;6.60;99.90;;;;;;5091389;28;20063;-90
2020/12/03 06:50:54;;;;;;;1999.90;999.90;;;6.60;99.90;;;;;;5087387;28;20082;-90
2020/12/03 06:54:11;;;;;;;1999.90;999.90;;;6.60;99.90;;;;;;5090931;28;20115;-90
2020/12/03 06:57:18;;;;;;;1999.90;999.90;;;6.60;99.90;;;;;;5094079;28;20048;-89
2020/12/03 07:00:14;;;;;;;1999.90;999.90;;;6.60;99.90;;;;;;5096636;28;20113;-89
2020/12/03 07:03:20;;;;;;;1999.90;999.90;;;6.60;99.90;;;;;;5096024;28;20074;-89
2020/12/03 07:06:21;;;;;;;1999.90;999.90;;;6.60;99.90;;;;;;5084846;28;20056;-89
2020/12/03 07:09:32;;;;;;;1999.90;999.90;;;6.60;99.90;;;;;;5093385;28;20064;-89
2020/12/03 07:12:24;;;;;;;1999.90;999.90;;;6.60;99.90;;;;;;5091484;28;20072;-89
2020/12/03 07:15:31;;;;;;;1999.90;999.90;;;6.70;99.90;;;;;;5090350;28;20044;-89
2020/12/03 07:18:28;;;;;;;1999.90;999.90;;;6.70;99.90;;;;;;5082115;28;20137;-89
2020/12/03 07:21:26;;;;;;;1999.90;999.90;;;6.70;99.90;;;;;;5092420;28;20055;-87
2020/12/03 07:24:00;;;;;;;1999.90;999.90;;;6.70;99.90;;;;;;5096003;28;20093;-87
2020/12/03 07:27:12;;;;;;;1999.90;999.90;;;6.70;99.90;;;;;;5092703;28;20112;-87
2020/12/03 07:29:52;;;;;;;1999.90;999.90;;;6.70;99.90;;;;;;5066956;28;20040;-87
2020/12/03 07:32:29;;;;;;;1999.90;999.90;;;6.70;99.90;;;;;;5095032;28;20145;-87
2020/12/03 07:35:04;;;;;;;1999.90;999.90;;;6.70;99.90;;;;;;5093833;28;20072;-89
2020/12/03 07:37:42;;;;;;;1999.90;999.90;;;6.70;99.90;;;;;;5094821;28;20058;-89
2020/12/03 07:40:10;;;;;;;1999.90;999.90;;;6.70;99.90;;;;;;5095142;28;20393;-89
2020/12/03 07:42:37;;;;;;;1999.90;999.90;;;6.70;99.90;;;;;;5095078;28;20413;-86
2020/12/03 07:45:25;;;;;;;1999.90;999.90;;;6.80;99.90;;;;;;5093826;28;20147;-87
2020/12/03 07:48:10;;;;;;;1999.90;999.90;;;6.80;99.90;;;;;;5093962;28;20373;-87
2020/12/03 07:51:06;;;;;;;1999.90;999.90;;;6.80;99.90;;;;;;5093864;28;20139;-88
2020/12/03 07:53:35;;;;;;;1999.90;999.90;;;6.70;99.90;;;;;;5090346;28;20142;-87
2020/12/03 07:56:35;;;;;;;1999.90;999.90;;;6.70;99.90;;;;;;5095477;28;20040;-86
2020/12/03 07:59:33;;;;;;;1999.90;999.90;;;6.80;99.90;;;;;;5094898;28;20117;-85
2020/12/03 08:02:02;;;;;;;1999.90;999.90;;;6.70;99.90;;;;;;5081676;28;20076;-86
2020/12/03 08:04:34;;;;;;;1999.90;999.90;;;6.80;99.90;;;;;;5094129;28;20055;-86
2020/12/03 08:07:35;;;;;;;1999.90;999.90;;;6.80;99.90;;;;;;5093316;28;20391;-86
2020/12/03 08:10:03;;;;;;;1999.90;999.90;;;6.80;99.90;;;;;;5089030;28;20083;-84
2020/12/03 08:12:31;;;;;;;1999.90;999.90;;;6.80;99.90;;;;;;5093988;28;20491;-84
2020/12/03 08:14:59;;;;;;;1999.90;999.90;;;6.80;99.90;;;;;;5093914;28;20750;-84
2020/12/03 08:17:47;;;;;;;1999.90;999.90;;;6.80;99.90;;;;;;5094573;28;20557;-84
2020/12/03 08:20:42;;;;;;;1999.90;999.90;;;6.80;99.90;;;;;;5092948;28;20058;-84
2020/12/03 08:23:13;;;;;;;1999.90;999.90;;;6.80;99.90;;;;;;5090537;28;20119;-83
2020/12/03 08:25:47;;;;;;;1999.90;999.90;;;6.80;99.90;;;;;;5092212;28;20113;-83
2020/12/03 08:28:21;;;;;;;1999.90;999.90;;;6.90;99.90;;;;;;5089226;28;20135;-83
2020/12/03 08:30:51;;;;;;;1999.90;999.90;;;6.90;99.90;;;;;;5089580;28;20050;-83
2020/12/03 08:33:29;;;;;;;1999.90;999.90;;;6.90;99.90;;;;;;5094366;28;20213;-83
2020/12/03 08:35:57;;;;;;;1999.90;999.90;;;6.80;99.90;;;;;;5094077;28;20131;-84
2020/12/03 08:38:28;;;;;;;1999.90;999.90;;;6.90;99.90;;;;;;5093773;28;20558;-84
2020/12/03 08:40:58;;;;;;;1999.90;999.90;;;6.90;99.90;;;;;;5092806;28;20048;-84
2020/12/03 08:43:27;;;;;;;1999.90;999.90;;;6.90;99.90;;;;;;5093750;28;20062;-84
2020/12/03 08:46:01;;;;;;;1999.90;999.90;;;6.90;99.90;;;;;;5087248;28;20045;-84
2020/12/03 08:48:32;;;;;;;1999.90;999.90;;;6.90;99.90;;;;;;5092818;28;20128;-85
2020/12/03 08:51:03;;;;;;;1999.90;999.90;;;6.90;99.90;;;;;;5086194;28;20076;-84
2020/12/03 08:53:32;;;;;;;1999.90;999.90;;;6.90;99.90;;;;;;5087801;28;20118;-84
2020/12/03 08:56:29;;;;;;;1999.90;999.90;;;6.90;99.90;;;;;;5093355;28;20127;-84
2020/12/03 08:59:05;;;;;;;1999.90;999.90;;;6.90;99.90;;;;;;5086882;28;20444;-83
2020/12/03 09:01:35;;;;;;;1999.90;999.90;;;7.00;99.90;;;;;;5095347;28;20126;-83
2020/12/03 09:04:04;;;;;;;1999.90;999.90;;;7.00;99.90;;;;;;5094413;28;20059;-84
2020/12/03 09:06:32;;;;;;;1999.90;999.90;;;7.00;99.90;;;;;;5094904;28;20074;-84
2020/12/03 09:09:02;;;;;;;1999.90;999.90;;;6.90;99.90;;;;;;5099688;28;20139;-84
2020/12/03 09:11:33;;;;;;;1999.90;999.90;;;6.90;99.90;;;;;;5089819;28;20079;-84
2020/12/03 09:14:01;;;;;;;1999.90;999.90;;;7.00;99.90;;;;;;5092408;28;20054;-84
2020/12/03 09:16:31;;;;;;;1999.90;999.90;;;7.00;99.90;;;;;;5090235;28;20126;-84
2020/12/03 09:18:59;;;;;;;1999.90;999.90;;;7.00;99.90;;;;;;5091241;28;20098;-84
2020/12/03 09:21:28;;;;;;;1999.90;999.90;;;7.00;99.90;;;;;;5090185;28;20059;-84
2020/12/03 09:23:56;;;;;;;1999.90;999.90;;;7.00;99.90;;;;;;5092982;28;20146;-84
2020/12/03 09:26:29;;;;;;;1999.90;999.90;;;7.00;99.90;;;;;;5093013;28;20052;-83
2020/12/03 09:28:57;;;;;;;1999.90;999.90;;;7.00;99.90;;;;;;5091530;28;20079;-84
2020/12/03 09:31:27;;;;;;;1999.90;999.90;;;7.00;99.90;;;;;;5087875;28;20068;-84
2020/12/03 09:33:55;;;;;;;1999.90;999.90;;;7.00;99.90;;;;;;5088192;28;20521;-84
2020/12/03 09:36:22;;;;;;;1999.90;999.90;;;7.00;99.90;;;;;;5091272;28;20044;-85
2020/12/03 09:38:51;;;;;;;1999.90;999.90;;;6.90;99.90;;;;;;5092042;28;20059;-84
2020/12/03 09:41:22;;;;;;;1999.90;999.90;;;7.00;99.90;;;;;;5092293;28;20482;-85
2020/12/03 09:43:51;;;;;;;1999.90;999.90;;;7.00;99.90;;;;;;5090451;28;20059;-84
2020/12/03 09:46:23;;;;;;;1999.90;999.90;;;7.00;99.90;;;;;;5090051;28;20490;-85
2020/12/03 09:48:51;;;;;;;1999.90;999.90;;;7.00;99.90;;;;;;5090605;28;20062;-84
2020/12/03 09:51:20;;;;;;;1999.90;999.90;;;7.00;99.90;;;;;;5090287;28;20055;-85
2020/12/03 09:53:48;;;;;;;1999.90;999.90;;;6.90;99.90;;;;;;5083036;28;20091;-85
2020/12/03 09:56:16;;;;;;;1999.90;999.90;;;6.90;99.90;;;;;;5088735;28;20101;-85
2020/12/03 09:58:43;;;;;;;1999.90;999.90;;;6.90;99.90;;;;;;5088850;28;20056;-85
2020/12/03 10:01:10;;;;;;;1999.90;999.90;;;6.90;99.90;;;;;;5089572;28;20067;-84
2020/12/03 10:04:14;;;;;;;1999.90;999.90;;;6.90;99.90;;;;;;5089582;28;20062;-85
2020/12/03 10:06:52;;;;;;;1999.90;999.90;;;6.80;99.90;;;;;;5078382;28;20502;-84
2020/12/03 10:09:36;;;;;;;1999.90;999.90;;;6.80;99.90;;;;;;5081675;28;20080;-88
2020/12/03 10:12:22;;;;;;;1999.90;999.90;;;6.90;99.90;;;;;;5091230;28;20066;-88
2020/12/03 10:15:09;;;;;;;1999.90;999.90;;;6.90;99.90;;;;;;5090917;28;20044;-87
2020/12/03 10:17:53;;;;;;;1999.90;999.90;;;6.90;99.90;;;;;;5089783;28;20127;-88
2020/12/03 10:20:21;;;;;;;1999.90;999.90;;;6.90;99.90;;;;;;5091034;28;20124;-88
2020/12/03 10:22:59;;;;;;;1999.90;999.90;;;6.90;99.90;;;;;;5090989;28;20146;-88
2020/12/03 10:25:30;;;;;;;1999.90;999.90;;;6.90;99.90;;;;;;5090512;28;20047;-88
2020/12/03 10:28:10;;;;;;;1999.90;999.90;;;6.90;99.90;;;;;;5090066;28;20347;-88
2020/12/03 10:30:39;;;;;;;1999.90;999.90;;;6.90;99.90;;;;;;5088081;28;20048;-91
2020/12/03 10:33:14;;;;;;;1999.90;999.90;;;6.90;99.90;;;;;;5092633;28;20527;-91
2020/12/03 10:35:43;;;;;;;1999.90;999.90;;;6.90;99.90;;;;;;5093128;28;20052;-91
2020/12/03 10:38:18;;;;;;;1999.90;999.90;;;6.90;99.90;;;;;;5093316;28;20108;-91
2020/12/03 10:40:45;;;;;;;1999.90;999.90;;;6.90;99.90;;;;;;5093077;28;20056;-91
2020/12/03 10:43:19;;;;;;;1999.90;999.90;;;6.90;99.90;;;;;;5092837;28;20044;-91
2020/12/03 10:45:50;;;;;;;1999.90;999.90;;;7.00;99.90;;;;;;5093247;28;20074;-91
2020/12/03 10:48:21;;;;;;;1999.90;999.90;;;7.00;99.90;;;;;;5092612;28;20135;-85
2020/12/03 10:50:54;;;;;;;1999.90;999.90;;;7.00;99.90;;;;;;5093236;28;20087;-91
2020/12/03 10:53:28;;;;;;;1999.90;999.90;;;6.90;99.90;;;;;;5097038;28;20087;-91
2020/12/03 10:56:00;;;;;;;1999.90;999.90;;;6.90;99.90;;;;;;5096421;28;20052;-85
2020/12/03 10:58:35;;;;;;;1999.90;999.90;;;6.90;99.90;;;;;;5088803;28;20047;-91
2020/12/03 11:01:07;;;;;;;1999.90;999.90;;;6.90;99.90;;;;;;5095187;28;20167;-90
2020/12/03 11:03:36;;;;;;;1999.90;999.90;;;6.90;99.90;;;;;;5092263;28;20056;-92
2020/12/03 11:06:04;;;;;;;1999.90;999.90;;;6.90;99.90;;;;;;5096710;28;20044;-92
2020/12/03 11:08:38;;;;;;;1999.90;999.90;;;6.90;99.90;;;;;;5096742;28;20154;-91
2020/12/03 11:11:08;;;;;;;1999.90;999.90;;;7.00;99.90;;;;;;5097514;28;20048;-92
2020/12/03 11:13:36;;;;;;;1999.90;999.90;;;6.90;99.90;;;;;;5096702;28;20554;-92
2020/12/03 11:16:05;;;;;;;1999.90;999.90;;;6.90;99.90;;;;;;5084745;28;20565;-87
2020/12/03 11:18:40;;;;;;;1999.90;999.90;;;7.00;99.90;;;;;;5096191;28;20586;-87
2020/12/03 11:21:15;;;;;;;1999.90;999.90;;;7.00;99.90;;;;;;5096187;28;20051;-87
2020/12/03 11:23:56;;;;;;;1999.90;999.90;;;7.00;99.90;;;;;;5096002;28;20048;-87
2020/12/03 11:26:26;;;;;;;1999.90;999.90;;;6.90;99.90;;;;;;5095022;28;20052;-86
2020/12/03 11:28:54;;;;;;;1999.90;999.90;;;7.00;99.90;;;;;;5095353;28;20098;-85
2020/12/03 11:31:31;;;;;;;1999.90;999.90;;;7.00;99.90;;;;;;5095234;28;20109;-85
2020/12/03 11:33:58;;;;;;;1999.90;999.90;;;7.00;99.90;;;;;;5095529;28;20047;-85
2020/12/03 11:36:32;;;;;;;1999.90;999.90;;;7.00;99.90;;;;;;5094426;28;20056;-85
2020/12/03 11:39:01;;;;;;;1999.90;999.90;;;7.00;99.90;;;;;;5092996;28;20707;-86
2020/12/03 11:41:43;;;;;;;1999.90;999.90;;;7.00;99.90;;;;;;5090016;28;20118;-86
2020/12/03 11:44:27;;;;;;;1999.90;999.90;;;7.00;99.90;;;;;;5093914;28;20856;-86
2020/12/03 11:49:51;;;;;;;1999.90;999.90;;;7.10;99.90;;;;;;5032547;28;20107;-84
2020/12/03 11:52:19;;;;;;;1999.90;999.90;;;7.10;99.90;;;;;;5080464;28;20066;-84
2020/12/03 11:54:47;;;;;;;1999.90;999.90;;;7.10;99.90;;;;;;5095046;28;20484;-84
2020/12/03 11:57:14;;;;;;;1999.90;999.90;;;7.10;99.90;;;;;;5093691;28;20465;-84
2020/12/03 11:59:43;;;;;;;1999.90;999.90;;;7.10;99.90;;;;;;5093785;28;20113;-85
2020/12/03 12:02:11;;;;;;;1999.90;999.90;;;7.10;99.90;;;;;;5094081;28;20055;-85
2020/12/03 12:04:46;;;;;;;1999.90;999.90;;;7.10;99.90;;;;;;5094096;28;20105;-84
2020/12/03 12:07:21;;;;;;;;;;;7.10;99.90;;;;;;5083814;28;20130;-85
2020/12/03 12:09:54;;;;;;;1999.90;999.90;;;7.10;99.90;;;;;;5094772;28;19934;-85
2020/12/03 12:12:23;;;;;;;1999.90;999.90;;;7.10;99.90;;;;;;5093275;28;20063;-84
2020/12/03 12:14:51;;;;;;;1999.90;999.90;;;7.10;99.90;;;;;;5094106;28;20077;-84
2020/12/03 12:17:19;;;;;;;1999.90;999.90;;;7.10;99.90;;;;;;5094702;28;20150;-85
2020/12/03 12:19:48;;;;;;;1999.90;999.90;;;7.10;99.90;;;;;;5094622;28;20131;-84
2020/12/03 12:22:15;;;;;;;1999.90;999.90;;;7.10;99.90;;;;;;5095410;28;20052;-92
2020/12/03 12:24:44;;;;;;;1999.90;999.90;;;7.10;99.90;;;;;;5089729;28;20076;-91
2020/12/03 12:27:12;;;;;;;1999.90;999.90;;;7.10;99.90;;;;;;5094496;28;20078;-91
2020/12/03 12:29:39;;;;;;;1999.90;999.90;;;7.10;99.90;;;;;;5095839;28;20400;-93
2020/12/03 12:32:09;;;;;;;1999.90;999.90;;;7.10;99.90;;;;;;5082995;28;20052;-94
2020/12/03 12:34:36;;;;;;;1999.90;999.90;;;7.10;99.90;;;;;;5094686;28;20052;-91
2020/12/03 12:37:03;;;;;;;1999.90;999.90;;;7.10;99.90;;;;;;5093786;28;20075;-89
2020/12/03 12:39:30;;;;;;;1999.90;999.90;;;7.10;99.90;;;;;;5095287;28;20078;-92
2020/12/03 12:41:58;;;;;;;1999.90;999.90;;;7.10;99.90;;;;;;5095179;28;20113;-91
2020/12/03 12:44:25;;;;;;;1999.90;999.90;;;7.10;99.90;;;;;;5095431;28;20056;-91
2020/12/03 12:46:57;;;;;;;1999.90;999.90;;;7.10;99.90;;;;;;5094753;28;20047;-93
2020/12/03 12:49:26;;;;;;;1999.90;999.90;;;7.10;99.90;;;;;;5095788;28;20075;-94